sensor_id;sensor_type;location;lat;lon;timestamp;P1;durP1;ratioP1;P2;durP2;ratioP2
11346;SDS011;5728;42.722;23.258;2023-02-12T00:00:16;12.93;;;7.10;;
11346;SDS011;5728;42.722;23.258;2023-02-12T00:02:44;11.90;;;8.20;;
11346;SDS011;5728;42.722;23.258;2023-02-12T00:05:12;13.93;;;7.70;;
11346;SDS011;5728;42.722;23.258;2023-02-12T00:07:40;14.90;;;8.07;;
11346;SDS011;5728;42.722;23.258;2023-02-12T00:10:07;12.23;;;7.37;;
11346;SDS011;5728;42.722;23.258;2023-02-12T00:12:34;10.33;;;6.70;;
11346;SDS011;5728;42.722;23.258;2023-02-12T00:15:01;14.83;;;7.70;;
11346;SDS011;5728;42.722;23.258;2023-02-12T00:17:28;12.60;;;8.73;;
11346;SDS011;5728;42.722;23.258;2023-02-12T00:19:54;12.77;;;8.03;;
11346;SDS011;5728;42.722;23.258;2023-02-12T00:22:23;12.07;;;6.90;;
11346;SDS011;5728;42.722;23.258;2023-02-12T00:24:49;13.47;;;7.90;;
11346;SDS011;5728;42.722;23.258;2023-02-12T00:27:16;12.10;;;7.50;;
11346;SDS011;5728;42.722;23.258;2023-02-12T00:29:43;13.87;;;7.63;;
11346;SDS011;5728;42.722;23.258;2023-02-12T00:32:09;14.00;;;7.80;;
11346;SDS011;5728;42.722;23.258;2023-02-12T00:34:38;12.73;;;8.23;;
11346;SDS011;5728;42.722;23.258;2023-02-12T00:37:05;22.37;;;7.60;;
11346;SDS011;5728;42.722;23.258;2023-02-12T00:39:33;11.07;;;7.77;;
11346;SDS011;5728;42.722;23.258;2023-02-12T00:42:02;11.53;;;6.27;;
11346;SDS011;5728;42.722;23.258;2023-02-12T00:44:29;11.73;;;7.10;;
11346;SDS011;5728;42.722;23.258;2023-02-12T00:46:55;12.20;;;7.40;;
11346;SDS011;5728;42.722;23.258;2023-02-12T00:49:26;9.60;;;6.80;;
11346;SDS011;5728;42.722;23.258;2023-02-12T00:51:53;7.73;;;5.77;;
11346;SDS011;5728;42.722;23.258;2023-02-12T00:54:20;14.03;;;8.17;;
11346;SDS011;5728;42.722;23.258;2023-02-12T00:56:48;10.60;;;6.93;;
11346;SDS011;5728;42.722;23.258;2023-02-12T00:59:15;12.53;;;7.67;;
11346;SDS011;5728;42.722;23.258;2023-02-12T01:01:42;9.97;;;7.33;;
11346;SDS011;5728;42.722;23.258;2023-02-12T01:04:08;12.17;;;6.67;;
11346;SDS011;5728;42.722;23.258;2023-02-12T01:06:35;16.50;;;7.73;;
11346;SDS011;5728;42.722;23.258;2023-02-12T01:09:02;12.90;;;6.60;;
11346;SDS011;5728;42.722;23.258;2023-02-12T01:11:28;12.87;;;7.90;;
11346;SDS011;5728;42.722;23.258;2023-02-12T01:13:56;13.37;;;7.60;;
11346;SDS011;5728;42.722;23.258;2023-02-12T01:16:24;11.80;;;8.07;;
11346;SDS011;5728;42.722;23.258;2023-02-12T01:18:52;13.50;;;7.47;;
11346;SDS011;5728;42.722;23.258;2023-02-12T01:21:20;12.47;;;7.73;;
11346;SDS011;5728;42.722;23.258;2023-02-12T01:23:48;11.07;;;7.63;;
11346;SDS011;5728;42.722;23.258;2023-02-12T01:26:16;8.10;;;5.37;;
11346;SDS011;5728;42.722;23.258;2023-02-12T01:28:47;11.43;;;6.83;;
11346;SDS011;5728;42.722;23.258;2023-02-12T01:31:18;10.83;;;6.27;;
11346;SDS011;5728;42.722;23.258;2023-02-12T01:33:46;12.93;;;7.73;;
11346;SDS011;5728;42.722;23.258;2023-02-12T01:36:13;10.47;;;6.57;;
11346;SDS011;5728;42.722;23.258;2023-02-12T01:38:40;14.40;;;7.77;;
11346;SDS011;5728;42.722;23.258;2023-02-12T01:41:07;12.83;;;7.80;;
11346;SDS011;5728;42.722;23.258;2023-02-12T01:43:35;13.23;;;8.53;;
11346;SDS011;5728;42.722;23.258;2023-02-12T01:46:03;13.20;;;8.60;;
11346;SDS011;5728;42.722;23.258;2023-02-12T01:48:33;13.33;;;7.50;;
11346;SDS011;5728;42.722;23.258;2023-02-12T01:51:03;12.00;;;7.63;;
11346;SDS011;5728;42.722;23.258;2023-02-12T01:53:35;12.03;;;7.30;;
11346;SDS011;5728;42.722;23.258;2023-02-12T01:56:06;13.77;;;8.67;;
11346;SDS011;5728;42.722;23.258;2023-02-12T01:58:35;14.30;;;8.67;;
11346;SDS011;5728;42.722;23.258;2023-02-12T02:01:05;15.73;;;9.03;;
11346;SDS011;5728;42.722;23.258;2023-02-12T02:03:37;18.73;;;9.63;;
11346;SDS011;5728;42.722;23.258;2023-02-12T02:06:07;16.90;;;9.93;;
11346;SDS011;5728;42.722;23.258;2023-02-12T02:08:37;13.60;;;8.33;;
11346;SDS011;5728;42.722;23.258;2023-02-12T02:11:04;19.93;;;9.70;;
11346;SDS011;5728;42.722;23.258;2023-02-12T02:13:51;15.33;;;9.47;;
11346;SDS011;5728;42.722;23.258;2023-02-12T02:16:35;15.83;;;9.93;;
11346;SDS011;5728;42.722;23.258;2023-02-12T02:19:08;14.63;;;10.53;;
11346;SDS011;5728;42.722;23.258;2023-02-12T02:21:50;18.37;;;9.53;;
11346;SDS011;5728;42.722;23.258;2023-02-12T02:24:46;17.97;;;10.00;;
11346;SDS011;5728;42.722;23.258;2023-02-12T02:27:39;15.10;;;9.80;;
11346;SDS011;5728;42.722;23.258;2023-02-12T02:33:12;17.80;;;10.07;;
11346;SDS011;5728;42.722;23.258;2023-02-12T02:35:48;16.20;;;10.07;;
11346;SDS011;5728;42.722;23.258;2023-02-12T02:38:22;17.20;;;10.17;;
11346;SDS011;5728;42.722;23.258;2023-02-12T02:40:54;19.10;;;10.97;;
11346;SDS011;5728;42.722;23.258;2023-02-12T02:43:30;17.17;;;10.13;;
11346;SDS011;5728;42.722;23.258;2023-02-12T02:46:03;16.03;;;9.00;;
11346;SDS011;5728;42.722;23.258;2023-02-12T02:48:33;16.03;;;10.07;;
11346;SDS011;5728;42.722;23.258;2023-02-12T02:51:03;13.80;;;9.20;;
11346;SDS011;5728;42.722;23.258;2023-02-12T02:53:35;16.73;;;10.03;;
11346;SDS011;5728;42.722;23.258;2023-02-12T02:56:05;18.33;;;9.97;;
11346;SDS011;5728;42.722;23.258;2023-02-12T02:58:38;17.17;;;10.03;;
11346;SDS011;5728;42.722;23.258;2023-02-12T03:01:10;16.77;;;10.37;;
11346;SDS011;5728;42.722;23.258;2023-02-12T03:03:43;16.13;;;10.77;;
11346;SDS011;5728;42.722;23.258;2023-02-12T03:06:17;20.53;;;11.60;;
11346;SDS011;5728;42.722;23.258;2023-02-12T03:08:50;18.50;;;11.53;;
11346;SDS011;5728;42.722;23.258;2023-02-12T03:11:22;18.27;;;10.97;;
11346;SDS011;5728;42.722;23.258;2023-02-12T03:13:53;22.10;;;11.97;;
11346;SDS011;5728;42.722;23.258;2023-02-12T03:16:26;17.90;;;10.03;;
11346;SDS011;5728;42.722;23.258;2023-02-12T03:18:55;21.43;;;12.50;;
11346;SDS011;5728;42.722;23.258;2023-02-12T03:21:27;18.70;;;11.10;;
11346;SDS011;5728;42.722;23.258;2023-02-12T03:23:58;17.37;;;10.03;;
11346;SDS011;5728;42.722;23.258;2023-02-12T03:26:31;18.50;;;11.17;;
11346;SDS011;5728;42.722;23.258;2023-02-12T03:29:04;17.40;;;10.30;;
11346;SDS011;5728;42.722;23.258;2023-02-12T03:31:34;15.00;;;9.07;;
11346;SDS011;5728;42.722;23.258;2023-02-12T03:34:08;15.87;;;9.53;;
11346;SDS011;5728;42.722;23.258;2023-02-12T03:36:44;14.50;;;8.60;;
11346;SDS011;5728;42.722;23.258;2023-02-12T03:39:19;19.10;;;10.30;;
11346;SDS011;5728;42.722;23.258;2023-02-12T03:41:54;13.87;;;9.67;;
11346;SDS011;5728;42.722;23.258;2023-02-12T03:44:30;14.83;;;10.20;;
11346;SDS011;5728;42.722;23.258;2023-02-12T03:47:10;18.30;;;10.63;;
11346;SDS011;5728;42.722;23.258;2023-02-12T03:49:45;17.23;;;9.10;;
11346;SDS011;5728;42.722;23.258;2023-02-12T03:52:18;18.23;;;9.90;;
11346;SDS011;5728;42.722;23.258;2023-02-12T03:54:45;16.00;;;9.47;;
11346;SDS011;5728;42.722;23.258;2023-02-12T03:57:13;15.00;;;10.47;;
11346;SDS011;5728;42.722;23.258;2023-02-12T03:59:43;16.07;;;9.53;;
11346;SDS011;5728;42.722;23.258;2023-02-12T04:02:11;16.60;;;9.93;;
11346;SDS011;5728;42.722;23.258;2023-02-12T04:04:39;17.33;;;9.60;;
11346;SDS011;5728;42.722;23.258;2023-02-12T04:07:06;16.00;;;10.20;;
11346;SDS011;5728;42.722;23.258;2023-02-12T04:09:33;15.17;;;9.00;;
11346;SDS011;5728;42.722;23.258;2023-02-12T04:12:14;17.93;;;10.47;;
11346;SDS011;5728;42.722;23.258;2023-02-12T04:14:59;20.17;;;10.13;;
11346;SDS011;5728;42.722;23.258;2023-02-12T04:17:44;14.47;;;9.87;;
11346;SDS011;5728;42.722;23.258;2023-02-12T04:20:21;18.90;;;11.20;;
11346;SDS011;5728;42.722;23.258;2023-02-12T04:22:58;16.37;;;11.00;;
11346;SDS011;5728;42.722;23.258;2023-02-12T04:25:38;16.80;;;9.83;;
11346;SDS011;5728;42.722;23.258;2023-02-12T04:28:13;18.03;;;11.13;;
11346;SDS011;5728;42.722;23.258;2023-02-12T04:30:51;14.03;;;9.67;;
11346;SDS011;5728;42.722;23.258;2023-02-12T04:33:24;20.83;;;10.53;;
11346;SDS011;5728;42.722;23.258;2023-02-12T04:35:58;15.50;;;9.93;;
11346;SDS011;5728;42.722;23.258;2023-02-12T04:38:29;17.13;;;9.57;;
11346;SDS011;5728;42.722;23.258;2023-02-12T04:41:00;16.17;;;10.50;;
11346;SDS011;5728;42.722;23.258;2023-02-12T04:43:31;15.20;;;9.37;;
11346;SDS011;5728;42.722;23.258;2023-02-12T04:45:59;13.67;;;9.40;;
11346;SDS011;5728;42.722;23.258;2023-02-12T04:48:28;17.73;;;10.23;;
11346;SDS011;5728;42.722;23.258;2023-02-12T04:50:54;16.87;;;9.20;;
11346;SDS011;5728;42.722;23.258;2023-02-12T04:53:21;18.20;;;9.47;;
11346;SDS011;5728;42.722;23.258;2023-02-12T04:55:48;14.57;;;9.67;;
11346;SDS011;5728;42.722;23.258;2023-02-12T04:58:15;16.00;;;9.50;;
11346;SDS011;5728;42.722;23.258;2023-02-12T05:00:42;18.57;;;9.43;;
11346;SDS011;5728;42.722;23.258;2023-02-12T05:03:09;18.37;;;10.07;;
11346;SDS011;5728;42.722;23.258;2023-02-12T05:05:37;19.33;;;10.07;;
11346;SDS011;5728;42.722;23.258;2023-02-12T05:08:04;20.13;;;9.97;;
11346;SDS011;5728;42.722;23.258;2023-02-12T05:10:31;14.50;;;9.73;;
11346;SDS011;5728;42.722;23.258;2023-02-12T05:12:57;15.83;;;9.13;;
11346;SDS011;5728;42.722;23.258;2023-02-12T05:15:24;14.07;;;8.47;;
11346;SDS011;5728;42.722;23.258;2023-02-12T05:17:51;13.87;;;8.57;;
11346;SDS011;5728;42.722;23.258;2023-02-12T05:20:18;20.47;;;8.97;;
11346;SDS011;5728;42.722;23.258;2023-02-12T05:22:46;16.33;;;9.10;;
11346;SDS011;5728;42.722;23.258;2023-02-12T05:25:17;17.33;;;7.57;;
11346;SDS011;5728;42.722;23.258;2023-02-12T05:27:43;17.20;;;8.63;;
11346;SDS011;5728;42.722;23.258;2023-02-12T05:30:10;17.23;;;10.13;;
11346;SDS011;5728;42.722;23.258;2023-02-12T05:32:37;17.97;;;10.23;;
11346;SDS011;5728;42.722;23.258;2023-02-12T05:35:04;15.10;;;9.17;;
11346;SDS011;5728;42.722;23.258;2023-02-12T05:37:32;17.37;;;9.97;;
11346;SDS011;5728;42.722;23.258;2023-02-12T05:40:01;14.73;;;8.53;;
11346;SDS011;5728;42.722;23.258;2023-02-12T05:42:29;17.20;;;10.40;;
11346;SDS011;5728;42.722;23.258;2023-02-12T05:44:55;12.77;;;8.80;;
11346;SDS011;5728;42.722;23.258;2023-02-12T05:47:22;19.27;;;11.17;;
11346;SDS011;5728;42.722;23.258;2023-02-12T05:49:49;20.13;;;10.87;;
11346;SDS011;5728;42.722;23.258;2023-02-12T05:52:15;19.67;;;10.50;;
11346;SDS011;5728;42.722;23.258;2023-02-12T05:54:42;23.03;;;13.30;;
11346;SDS011;5728;42.722;23.258;2023-02-12T05:57:10;17.80;;;10.37;;
11346;SDS011;5728;42.722;23.258;2023-02-12T05:59:38;19.50;;;11.13;;
11346;SDS011;5728;42.722;23.258;2023-02-12T06:02:04;18.90;;;11.03;;
11346;SDS011;5728;42.722;23.258;2023-02-12T06:04:31;12.63;;;7.53;;
11346;SDS011;5728;42.722;23.258;2023-02-12T06:06:58;28.87;;;11.47;;
11346;SDS011;5728;42.722;23.258;2023-02-12T06:09:26;18.40;;;11.30;;
11346;SDS011;5728;42.722;23.258;2023-02-12T06:11:52;13.40;;;9.33;;
11346;SDS011;5728;42.722;23.258;2023-02-12T06:14:20;19.53;;;10.03;;
11346;SDS011;5728;42.722;23.258;2023-02-12T06:16:48;10.27;;;6.60;;
11346;SDS011;5728;42.722;23.258;2023-02-12T06:19:16;15.43;;;9.40;;
11346;SDS011;5728;42.722;23.258;2023-02-12T06:21:44;21.37;;;10.40;;
11346;SDS011;5728;42.722;23.258;2023-02-12T06:24:11;21.27;;;10.70;;
11346;SDS011;5728;42.722;23.258;2023-02-12T06:26:38;18.47;;;10.87;;
11346;SDS011;5728;42.722;23.258;2023-02-12T06:29:05;13.83;;;9.77;;
11346;SDS011;5728;42.722;23.258;2023-02-12T06:31:34;14.77;;;7.80;;
11346;SDS011;5728;42.722;23.258;2023-02-12T06:34:03;16.57;;;9.37;;
11346;SDS011;5728;42.722;23.258;2023-02-12T06:36:31;17.10;;;9.63;;
11346;SDS011;5728;42.722;23.258;2023-02-12T06:38:59;18.10;;;9.77;;
11346;SDS011;5728;42.722;23.258;2023-02-12T06:41:26;27.07;;;11.33;;
11346;SDS011;5728;42.722;23.258;2023-02-12T06:43:53;13.00;;;8.43;;
11346;SDS011;5728;42.722;23.258;2023-02-12T06:46:20;19.67;;;10.17;;
11346;SDS011;5728;42.722;23.258;2023-02-12T06:48:53;19.57;;;10.20;;
11346;SDS011;5728;42.722;23.258;2023-02-12T06:51:20;17.83;;;10.57;;
11346;SDS011;5728;42.722;23.258;2023-02-12T06:53:47;16.27;;;10.17;;
11346;SDS011;5728;42.722;23.258;2023-02-12T06:56:14;20.30;;;11.97;;
11346;SDS011;5728;42.722;23.258;2023-02-12T06:58:42;29.00;;;10.63;;
11346;SDS011;5728;42.722;23.258;2023-02-12T07:01:11;16.23;;;10.63;;
11346;SDS011;5728;42.722;23.258;2023-02-12T07:03:39;16.57;;;10.47;;
11346;SDS011;5728;42.722;23.258;2023-02-12T07:06:08;19.50;;;11.60;;
11346;SDS011;5728;42.722;23.258;2023-02-12T07:08:35;14.67;;;9.87;;
11346;SDS011;5728;42.722;23.258;2023-02-12T07:11:02;15.60;;;10.80;;
11346;SDS011;5728;42.722;23.258;2023-02-12T07:13:30;17.20;;;10.53;;
11346;SDS011;5728;42.722;23.258;2023-02-12T07:16:01;18.73;;;10.23;;
11346;SDS011;5728;42.722;23.258;2023-02-12T07:18:28;15.90;;;9.80;;
11346;SDS011;5728;42.722;23.258;2023-02-12T07:20:55;17.63;;;10.17;;
11346;SDS011;5728;42.722;23.258;2023-02-12T07:23:23;16.47;;;10.57;;
11346;SDS011;5728;42.722;23.258;2023-02-12T07:25:53;13.60;;;8.03;;
11346;SDS011;5728;42.722;23.258;2023-02-12T07:28:21;17.57;;;9.13;;
11346;SDS011;5728;42.722;23.258;2023-02-12T07:30:48;11.87;;;7.90;;
11346;SDS011;5728;42.722;23.258;2023-02-12T07:33:14;15.27;;;9.87;;
11346;SDS011;5728;42.722;23.258;2023-02-12T07:35:41;14.13;;;8.90;;
11346;SDS011;5728;42.722;23.258;2023-02-12T07:38:08;15.77;;;10.23;;
11346;SDS011;5728;42.722;23.258;2023-02-12T07:40:36;14.00;;;7.80;;
11346;SDS011;5728;42.722;23.258;2023-02-12T07:43:03;14.00;;;9.63;;
11346;SDS011;5728;42.722;23.258;2023-02-12T07:45:30;22.40;;;9.73;;
11346;SDS011;5728;42.722;23.258;2023-02-12T07:47:56;14.90;;;9.47;;
11346;SDS011;5728;42.722;23.258;2023-02-12T07:50:23;21.00;;;12.03;;
11346;SDS011;5728;42.722;23.258;2023-02-12T07:52:50;9.47;;;6.57;;
11346;SDS011;5728;42.722;23.258;2023-02-12T07:55:17;19.90;;;11.10;;
11346;SDS011;5728;42.722;23.258;2023-02-12T07:57:45;18.80;;;12.03;;
11346;SDS011;5728;42.722;23.258;2023-02-12T08:00:12;18.97;;;11.60;;
11346;SDS011;5728;42.722;23.258;2023-02-12T08:02:40;24.80;;;13.47;;
11346;SDS011;5728;42.722;23.258;2023-02-12T08:05:07;17.97;;;10.80;;
11346;SDS011;5728;42.722;23.258;2023-02-12T08:07:33;24.30;;;12.63;;
11346;SDS011;5728;42.722;23.258;2023-02-12T08:10:00;20.10;;;12.50;;
11346;SDS011;5728;42.722;23.258;2023-02-12T08:12:27;21.00;;;11.30;;
11346;SDS011;5728;42.722;23.258;2023-02-12T08:14:55;17.43;;;12.00;;
11346;SDS011;5728;42.722;23.258;2023-02-12T08:17:22;16.03;;;10.80;;
11346;SDS011;5728;42.722;23.258;2023-02-12T08:19:48;20.17;;;11.70;;
11346;SDS011;5728;42.722;23.258;2023-02-12T08:22:15;18.57;;;10.60;;
11346;SDS011;5728;42.722;23.258;2023-02-12T08:24:43;15.10;;;8.90;;
11346;SDS011;5728;42.722;23.258;2023-02-12T08:27:09;22.60;;;11.77;;
11346;SDS011;5728;42.722;23.258;2023-02-12T08:29:36;21.97;;;12.00;;
11346;SDS011;5728;42.722;23.258;2023-02-12T08:32:04;20.07;;;11.93;;
11346;SDS011;5728;42.722;23.258;2023-02-12T08:34:34;19.87;;;13.10;;
11346;SDS011;5728;42.722;23.258;2023-02-12T08:37:01;21.63;;;12.13;;
11346;SDS011;5728;42.722;23.258;2023-02-12T08:39:30;17.07;;;11.73;;
11346;SDS011;5728;42.722;23.258;2023-02-12T08:41:57;16.80;;;10.87;;
11346;SDS011;5728;42.722;23.258;2023-02-12T08:44:25;21.47;;;13.23;;
11346;SDS011;5728;42.722;23.258;2023-02-12T08:46:52;20.70;;;13.73;;
11346;SDS011;5728;42.722;23.258;2023-02-12T08:49:21;20.70;;;13.53;;
11346;SDS011;5728;42.722;23.258;2023-02-12T08:51:51;23.87;;;12.63;;
11346;SDS011;5728;42.722;23.258;2023-02-12T08:54:19;18.83;;;12.63;;
11346;SDS011;5728;42.722;23.258;2023-02-12T08:56:47;24.93;;;13.63;;
11346;SDS011;5728;42.722;23.258;2023-02-12T08:59:15;19.93;;;12.50;;
11346;SDS011;5728;42.722;23.258;2023-02-12T09:01:42;21.77;;;14.20;;
11346;SDS011;5728;42.722;23.258;2023-02-12T09:04:12;21.53;;;11.67;;
11346;SDS011;5728;42.722;23.258;2023-02-12T09:06:43;22.73;;;13.70;;
11346;SDS011;5728;42.722;23.258;2023-02-12T09:09:11;13.80;;;9.40;;
11346;SDS011;5728;42.722;23.258;2023-02-12T09:11:37;23.10;;;12.07;;
11346;SDS011;5728;42.722;23.258;2023-02-12T09:14:05;23.27;;;12.20;;
11346;SDS011;5728;42.722;23.258;2023-02-12T09:16:34;15.37;;;9.60;;
11346;SDS011;5728;42.722;23.258;2023-02-12T09:19:02;22.97;;;14.30;;
11346;SDS011;5728;42.722;23.258;2023-02-12T09:21:29;41.60;;;23.17;;
11346;SDS011;5728;42.722;23.258;2023-02-12T09:23:57;22.27;;;14.67;;
11346;SDS011;5728;42.722;23.258;2023-02-12T09:26:24;26.50;;;13.07;;
11346;SDS011;5728;42.722;23.258;2023-02-12T09:28:51;28.77;;;13.80;;
11346;SDS011;5728;42.722;23.258;2023-02-12T09:31:20;24.83;;;14.00;;
11346;SDS011;5728;42.722;23.258;2023-02-12T09:33:50;21.50;;;13.27;;
11346;SDS011;5728;42.722;23.258;2023-02-12T09:36:17;22.23;;;13.57;;
11346;SDS011;5728;42.722;23.258;2023-02-12T09:38:44;21.50;;;13.17;;
11346;SDS011;5728;42.722;23.258;2023-02-12T09:41:19;21.67;;;13.30;;
11346;SDS011;5728;42.722;23.258;2023-02-12T09:44:03;20.93;;;12.30;;
11346;SDS011;5728;42.722;23.258;2023-02-12T09:46:35;23.10;;;14.23;;
11346;SDS011;5728;42.722;23.258;2023-02-12T09:49:11;24.87;;;13.63;;
11346;SDS011;5728;42.722;23.258;2023-02-12T09:51:44;27.50;;;13.93;;
11346;SDS011;5728;42.722;23.258;2023-02-12T09:54:18;25.53;;;13.83;;
11346;SDS011;5728;42.722;23.258;2023-02-12T09:56:49;21.60;;;13.20;;
11346;SDS011;5728;42.722;23.258;2023-02-12T09:59:21;23.07;;;14.03;;
11346;SDS011;5728;42.722;23.258;2023-02-12T10:01:57;19.33;;;12.83;;
11346;SDS011;5728;42.722;23.258;2023-02-12T10:04:24;24.57;;;13.90;;
11346;SDS011;5728;42.722;23.258;2023-02-12T10:06:55;24.63;;;14.10;;
11346;SDS011;5728;42.722;23.258;2023-02-12T10:09:32;28.57;;;15.50;;
11346;SDS011;5728;42.722;23.258;2023-02-12T10:12:11;19.93;;;13.00;;
11346;SDS011;5728;42.722;23.258;2023-02-12T10:15:01;26.00;;;15.17;;
11346;SDS011;5728;42.722;23.258;2023-02-12T10:17:39;26.47;;;15.23;;
11346;SDS011;5728;42.722;23.258;2023-02-12T10:20:16;22.90;;;14.97;;
11346;SDS011;5728;42.722;23.258;2023-02-12T10:22:59;28.83;;;16.40;;
11346;SDS011;5728;42.722;23.258;2023-02-12T10:25:43;26.53;;;15.40;;
11346;SDS011;5728;42.722;23.258;2023-02-12T10:28:15;24.87;;;15.33;;
11346;SDS011;5728;42.722;23.258;2023-02-12T10:30:47;25.30;;;16.10;;
11346;SDS011;5728;42.722;23.258;2023-02-12T10:33:17;24.60;;;15.50;;
11346;SDS011;5728;42.722;23.258;2023-02-12T10:35:50;24.07;;;13.10;;
11346;SDS011;5728;42.722;23.258;2023-02-12T10:38:21;25.97;;;16.20;;
11346;SDS011;5728;42.722;23.258;2023-02-12T10:40:53;29.67;;;17.73;;
11346;SDS011;5728;42.722;23.258;2023-02-12T10:43:23;27.27;;;17.03;;
11346;SDS011;5728;42.722;23.258;2023-02-12T10:45:51;28.17;;;17.77;;
11346;SDS011;5728;42.722;23.258;2023-02-12T10:48:18;20.20;;;13.27;;
11346;SDS011;5728;42.722;23.258;2023-02-12T10:50:53;26.13;;;15.00;;
11346;SDS011;5728;42.722;23.258;2023-02-12T10:53:36;24.07;;;15.77;;
11346;SDS011;5728;42.722;23.258;2023-02-12T10:56:06;27.10;;;16.30;;
11346;SDS011;5728;42.722;23.258;2023-02-12T10:58:40;25.80;;;16.13;;
11346;SDS011;5728;42.722;23.258;2023-02-12T11:01:13;24.77;;;16.50;;
11346;SDS011;5728;42.722;23.258;2023-02-12T11:03:42;32.67;;;17.20;;
11346;SDS011;5728;42.722;23.258;2023-02-12T11:06:12;26.70;;;17.53;;
11346;SDS011;5728;42.722;23.258;2023-02-12T11:08:41;28.00;;;14.67;;
11346;SDS011;5728;42.722;23.258;2023-02-12T11:11:09;25.53;;;15.63;;
11346;SDS011;5728;42.722;23.258;2023-02-12T11:13:38;26.90;;;17.37;;
11346;SDS011;5728;42.722;23.258;2023-02-12T11:16:09;26.00;;;15.53;;
11346;SDS011;5728;42.722;23.258;2023-02-12T11:18:36;26.50;;;16.23;;
11346;SDS011;5728;42.722;23.258;2023-02-12T11:21:04;23.73;;;15.27;;
11346;SDS011;5728;42.722;23.258;2023-02-12T11:23:34;25.83;;;15.47;;
11346;SDS011;5728;42.722;23.258;2023-02-12T11:26:04;25.80;;;15.50;;
11346;SDS011;5728;42.722;23.258;2023-02-12T11:28:32;24.57;;;16.53;;
11346;SDS011;5728;42.722;23.258;2023-02-12T11:31:03;25.70;;;16.10;;
11346;SDS011;5728;42.722;23.258;2023-02-12T11:33:46;23.13;;;15.53;;
11346;SDS011;5728;42.722;23.258;2023-02-12T11:36:32;20.43;;;14.23;;
11346;SDS011;5728;42.722;23.258;2023-02-12T11:39:01;29.37;;;16.73;;
11346;SDS011;5728;42.722;23.258;2023-02-12T11:41:30;27.60;;;16.30;;
11346;SDS011;5728;42.722;23.258;2023-02-12T11:44:00;25.37;;;16.63;;
11346;SDS011;5728;42.722;23.258;2023-02-12T11:46:35;23.50;;;15.37;;
11346;SDS011;5728;42.722;23.258;2023-02-12T11:49:02;25.80;;;17.23;;
11346;SDS011;5728;42.722;23.258;2023-02-12T11:51:33;26.13;;;17.17;;
11346;SDS011;5728;42.722;23.258;2023-02-12T11:54:03;29.40;;;17.93;;
11346;SDS011;5728;42.722;23.258;2023-02-12T11:56:39;29.53;;;17.10;;
11346;SDS011;5728;42.722;23.258;2023-02-12T11:59:11;24.50;;;14.93;;
11346;SDS011;5728;42.722;23.258;2023-02-12T12:01:52;25.13;;;15.23;;
11346;SDS011;5728;42.722;23.258;2023-02-12T12:04:22;25.73;;;16.77;;
11346;SDS011;5728;42.722;23.258;2023-02-12T12:06:52;29.27;;;16.27;;
11346;SDS011;5728;42.722;23.258;2023-02-12T12:09:26;26.73;;;15.27;;
11346;SDS011;5728;42.722;23.258;2023-02-12T12:12:01;26.33;;;15.23;;
11346;SDS011;5728;42.722;23.258;2023-02-12T12:14:38;27.47;;;16.10;;
11346;SDS011;5728;42.722;23.258;2023-02-12T12:17:25;25.27;;;14.97;;
11346;SDS011;5728;42.722;23.258;2023-02-12T12:20:18;24.80;;;13.80;;
11346;SDS011;5728;42.722;23.258;2023-02-12T12:22:49;24.47;;;14.83;;
11346;SDS011;5728;42.722;23.258;2023-02-12T12:25:23;24.10;;;14.33;;
11346;SDS011;5728;42.722;23.258;2023-02-12T12:27:54;23.10;;;15.47;;
11346;SDS011;5728;42.722;23.258;2023-02-12T12:30:35;24.43;;;15.50;;
11346;SDS011;5728;42.722;23.258;2023-02-12T12:33:20;24.97;;;15.97;;
11346;SDS011;5728;42.722;23.258;2023-02-12T12:35:54;26.63;;;15.03;;
11346;SDS011;5728;42.722;23.258;2023-02-12T12:38:44;20.57;;;14.53;;
11346;SDS011;5728;42.722;23.258;2023-02-12T12:41:23;22.80;;;13.63;;
11346;SDS011;5728;42.722;23.258;2023-02-12T12:44:02;24.13;;;15.40;;
11346;SDS011;5728;42.722;23.258;2023-02-12T12:46:53;26.03;;;14.50;;
11346;SDS011;5728;42.722;23.258;2023-02-12T12:49:46;22.87;;;14.83;;
11346;SDS011;5728;42.722;23.258;2023-02-12T12:55:20;32.20;;;15.87;;
11346;SDS011;5728;42.722;23.258;2023-02-12T12:58:04;26.93;;;15.40;;
11346;SDS011;5728;42.722;23.258;2023-02-12T13:00:40;24.57;;;15.70;;
11346;SDS011;5728;42.722;23.258;2023-02-12T13:15:32;23.17;;;15.97;;
11346;SDS011;5728;42.722;23.258;2023-02-12T13:18:13;24.33;;;15.43;;
11346;SDS011;5728;42.722;23.258;2023-02-12T13:20:47;21.67;;;14.10;;
11346;SDS011;5728;42.722;23.258;2023-02-12T13:23:24;20.80;;;13.50;;
11346;SDS011;5728;42.722;23.258;2023-02-12T13:26:01;21.53;;;13.87;;
11346;SDS011;5728;42.722;23.258;2023-02-12T13:28:36;25.07;;;15.13;;
11346;SDS011;5728;42.722;23.258;2023-02-12T13:31:06;20.57;;;14.40;;
11346;SDS011;5728;42.722;23.258;2023-02-12T13:33:38;23.17;;;14.57;;
11346;SDS011;5728;42.722;23.258;2023-02-12T13:36:09;26.27;;;16.13;;
11346;SDS011;5728;42.722;23.258;2023-02-12T13:38:41;22.03;;;13.77;;
11346;SDS011;5728;42.722;23.258;2023-02-12T13:41:12;18.73;;;12.40;;
11346;SDS011;5728;42.722;23.258;2023-02-12T13:43:45;35.10;;;14.63;;
11346;SDS011;5728;42.722;23.258;2023-02-12T13:46:23;24.93;;;14.10;;
11346;SDS011;5728;42.722;23.258;2023-02-12T13:48:59;28.83;;;15.97;;
11346;SDS011;5728;42.722;23.258;2023-02-12T13:51:38;25.03;;;15.17;;
11346;SDS011;5728;42.722;23.258;2023-02-12T13:54:12;23.67;;;15.47;;
11346;SDS011;5728;42.722;23.258;2023-02-12T13:56:57;24.67;;;15.37;;
11346;SDS011;5728;42.722;23.258;2023-02-12T13:59:39;28.67;;;15.90;;
11346;SDS011;5728;42.722;23.258;2023-02-12T14:02:27;27.87;;;16.57;;
11346;SDS011;5728;42.722;23.258;2023-02-12T14:05:20;25.13;;;15.17;;
11346;SDS011;5728;42.722;23.258;2023-02-12T14:07:51;24.40;;;15.57;;
11346;SDS011;5728;42.722;23.258;2023-02-12T14:10:21;28.33;;;16.50;;
11346;SDS011;5728;42.722;23.258;2023-02-12T14:12:51;23.47;;;15.80;;
11346;SDS011;5728;42.722;23.258;2023-02-12T14:15:27;26.27;;;15.33;;
11346;SDS011;5728;42.722;23.258;2023-02-12T14:18:05;27.73;;;17.47;;
11346;SDS011;5728;42.722;23.258;2023-02-12T14:20:47;22.97;;;16.37;;
11346;SDS011;5728;42.722;23.258;2023-02-12T14:25:56;24.73;;;16.33;;
11346;SDS011;5728;42.722;23.258;2023-02-12T14:28:27;35.50;;;16.80;;
11346;SDS011;5728;42.722;23.258;2023-02-12T14:31:28;32.40;;;17.60;;
11346;SDS011;5728;42.722;23.258;2023-02-12T14:37:17;31.47;;;17.47;;
11346;SDS011;5728;42.722;23.258;2023-02-12T14:42:58;27.77;;;17.83;;
11346;SDS011;5728;42.722;23.258;2023-02-12T14:45:28;28.80;;;18.70;;
11346;SDS011;5728;42.722;23.258;2023-02-12T14:47:57;31.67;;;20.03;;
11346;SDS011;5728;42.722;23.258;2023-02-12T14:50:27;32.93;;;18.73;;
11346;SDS011;5728;42.722;23.258;2023-02-12T14:53:02;30.70;;;19.93;;
11346;SDS011;5728;42.722;23.258;2023-02-12T14:55:32;32.13;;;21.77;;
11346;SDS011;5728;42.722;23.258;2023-02-12T14:58:02;40.17;;;21.20;;
11346;SDS011;5728;42.722;23.258;2023-02-12T15:00:35;31.77;;;19.10;;
11346;SDS011;5728;42.722;23.258;2023-02-12T15:03:06;31.00;;;19.27;;
11346;SDS011;5728;42.722;23.258;2023-02-12T15:05:44;30.57;;;18.00;;
11346;SDS011;5728;42.722;23.258;2023-02-12T15:08:17;27.77;;;19.03;;
11346;SDS011;5728;42.722;23.258;2023-02-12T15:10:54;27.60;;;18.33;;
11346;SDS011;5728;42.722;23.258;2023-02-12T15:13:28;38.17;;;19.37;;
11346;SDS011;5728;42.722;23.258;2023-02-12T15:16:03;28.27;;;18.20;;